createdAt,value
2019-04-26T00:01:17.089Z,13.33
2019-04-26T00:03:47.829Z,13.10
2019-04-26T00:06:18.664Z,12.50
2019-04-26T00:08:53.183Z,13.33
2019-04-26T00:11:43.044Z,13.77
2019-04-26T00:14:40.311Z,15.50
2019-04-26T00:17:14.160Z,15.43
2019-04-26T00:19:44.431Z,15.30
2019-04-26T00:22:15.290Z,15.93
2019-04-26T00:24:45.262Z,14.40
2019-04-26T00:27:14.933Z,15.23
2019-04-26T00:29:44.762Z,15.83
2019-04-26T00:32:15.047Z,16.50
2019-04-26T00:34:45.150Z,15.93
2019-04-26T00:37:15.858Z,16.00
2019-04-26T00:39:45.695Z,16.00
2019-04-26T00:42:16.477Z,16.27
2019-04-26T00:44:47.062Z,15.83
2019-04-26T00:47:19.052Z,14.60
2019-04-26T00:49:48.872Z,14.63
2019-04-26T00:52:19.530Z,15.03
2019-04-26T00:54:49.980Z,16.47
2019-04-26T00:57:20.351Z,15.23
2019-04-26T00:59:52.130Z,15.67
2019-04-26T01:02:36.489Z,15.40
2019-04-26T01:05:06.358Z,15.97
2019-04-26T01:07:36.068Z,15.27
2019-04-26T01:10:06.336Z,15.20
2019-04-26T01:12:36.075Z,15.80
2019-04-26T01:15:06.672Z,16.17
2019-04-26T01:17:36.387Z,16.17
2019-04-26T01:20:06.524Z,16.07
2019-04-26T01:22:41.642Z,16.00
2019-04-26T01:25:36.418Z,15.60
2019-04-26T01:28:09.259Z,15.80
2019-04-26T01:30:39.803Z,15.90
2019-04-26T01:33:11.738Z,15.43
2019-04-26T01:35:42.306Z,16.67
2019-04-26T01:38:15.886Z,14.83
2019-04-26T01:40:47.502Z,14.70
2019-04-26T01:43:39.055Z,16.37
2019-04-26T01:46:15.048Z,15.80
2019-04-26T01:48:56.567Z,15.20
2019-04-26T01:51:32.933Z,16.00
2019-04-26T01:54:02.791Z,15.30
2019-04-26T01:56:36.337Z,15.90
2019-04-26T01:59:08.377Z,16.70
2019-04-26T02:02:03.492Z,16.23
2019-04-26T02:04:36.249Z,16.73
2019-04-26T02:07:06.355Z,17.47
2019-04-26T02:09:36.030Z,16.13
2019-04-26T02:12:06.544Z,15.37
2019-04-26T02:14:36.320Z,16.47
2019-04-26T02:17:06.300Z,16.70
2019-04-26T02:19:36.165Z,16.73
2019-04-26T02:22:31.938Z,16.47
2019-04-26T02:25:01.923Z,16.90
2019-04-26T02:27:32.517Z,17.00
2019-04-26T02:30:03.154Z,16.87
2019-04-26T02:32:34.432Z,17.33
2019-04-26T02:35:04.827Z,18.43
2019-04-26T02:37:36.877Z,17.97
2019-04-26T02:40:10.470Z,16.87
2019-04-26T02:42:43.033Z,18.33
2019-04-26T02:45:56.222Z,17.87
2019-04-26T02:48:51.028Z,17.30
2019-04-26T02:51:28.522Z,17.80
2019-04-26T02:54:05.776Z,17.73
2019-04-26T02:56:41.960Z,18.03
2019-04-26T02:59:38.779Z,18.30
2019-04-26T03:02:30.199Z,17.37
2019-04-26T03:05:07.219Z,18.20
2019-04-26T03:07:53.737Z,17.70
2019-04-26T03:10:38.652Z,19.07
2019-04-26T03:13:17.105Z,18.77
2019-04-26T03:16:08.194Z,19.17
2019-04-26T03:18:59.848Z,19.83
2019-04-26T03:21:58.948Z,19.40
2019-04-26T03:24:37.198Z,20.13
2019-04-26T03:27:21.249Z,17.93
2019-04-26T03:30:19.523Z,18.73
2019-04-26T03:32:54.239Z,19.33
2019-04-26T03:35:43.894Z,18.77
2019-04-26T03:38:22.858Z,19.63
2019-04-26T03:41:10.186Z,18.57
2019-04-26T03:44:05.670Z,20.07
2019-04-26T03:47:01.804Z,19.53
2019-04-26T03:50:09.199Z,20.03
2019-04-26T03:53:18.319Z,20.33
2019-04-26T03:56:27.579Z,19.60
2019-04-26T03:59:24.946Z,18.63
2019-04-26T04:02:22.368Z,18.50
2019-04-26T04:05:13.169Z,19.17
2019-04-26T04:07:50.890Z,18.87
2019-04-26T04:10:20.384Z,17.67
2019-04-26T04:13:44.501Z,18.67
2019-04-26T04:16:38.696Z,17.20
2019-04-26T04:19:27.339Z,17.27
2019-04-26T04:22:03.368Z,16.40
2019-04-26T04:24:41.324Z,16.63
2019-04-26T04:27:23.354Z,16.67
2019-04-26T04:30:51.953Z,17.37
2019-04-26T04:33:47.360Z,17.83
2019-04-26T04:36:22.840Z,17.53
2019-04-26T04:39:21.723Z,17.07
2019-04-26T04:42:22.973Z,16.93
2019-04-26T04:45:49.500Z,16.17
2019-04-26T04:48:31.544Z,17.30
2019-04-26T04:51:27.719Z,16.53
2019-04-26T04:54:27.128Z,17.40
2019-04-26T04:57:35.049Z,16.33
2019-04-26T05:00:25.901Z,16.90
2019-04-26T05:03:31.746Z,16.30
2019-04-26T05:06:18.954Z,17.13
2019-04-26T05:09:20.087Z,17.37
2019-04-26T05:12:23.809Z,16.17
2019-04-26T05:15:42.203Z,17.33
2019-04-26T05:19:29.319Z,17.53
2019-04-26T05:22:26.875Z,15.60
2019-04-26T05:25:42.284Z,16.60
2019-04-26T05:28:25.712Z,16.83
2019-04-26T05:31:34.235Z,15.57
2019-04-26T05:34:29.081Z,16.33
2019-04-26T05:37:37.884Z,14.70
2019-04-26T05:40:16.348Z,16.33
2019-04-26T05:43:28.364Z,14.97
2019-04-26T05:46:44.802Z,14.77
2019-04-26T05:50:33.336Z,15.70
2019-04-26T05:54:15.550Z,15.40
2019-04-26T05:57:25.470Z,14.33
2019-04-26T06:00:34.024Z,16.20
2019-04-26T06:03:47.297Z,15.37
2019-04-26T06:06:37.584Z,14.97
2019-04-26T06:09:40.185Z,14.27
2019-04-26T06:12:20.215Z,15.77
2019-04-26T06:15:26.489Z,14.33
2019-04-26T06:18:15.199Z,14.17
2019-04-26T06:20:52.965Z,13.53
2019-04-26T06:23:55.711Z,13.23
2019-04-26T06:27:13.581Z,14.50
2019-04-26T06:30:03.180Z,13.47
2019-04-26T06:33:03.220Z,12.93
2019-04-26T06:35:33.195Z,12.97
2019-04-26T06:39:06.216Z,12.10
2019-04-26T06:42:11.497Z,12.20
2019-04-26T06:45:33.676Z,11.57
2019-04-26T06:48:14.500Z,11.90
2019-04-26T06:50:51.302Z,11.73
2019-04-26T06:53:45.455Z,11.00
2019-04-26T06:56:35.913Z,10.47
2019-04-26T06:59:42.329Z,12.00
2019-04-26T07:02:26.052Z,10.85
2019-04-26T07:05:24.254Z,10.53
2019-04-26T07:08:18.652Z,10.17
2019-04-26T07:11:29.636Z,10.72
2019-04-26T07:14:34.746Z,10.10
2019-04-26T07:17:14.189Z,10.32
2019-04-26T07:20:31.711Z,10.18
2019-04-26T07:24:13.335Z,10.80
2019-04-26T07:27:15.061Z,9.68
2019-04-26T07:30:12.841Z,9.60
2019-04-26T07:36:40.192Z,9.55
2019-04-26T07:39:32.593Z,9.15
2019-04-26T07:42:50.869Z,9.93
2019-04-26T07:45:57.951Z,9.78
2019-04-26T07:49:03.258Z,9.45
2019-04-26T07:52:22.760Z,10.13
2019-04-26T07:55:29.993Z,9.65
2019-04-26T07:58:44.531Z,8.63
2019-04-26T08:01:32.875Z,9.33
2019-04-26T08:04:09.480Z,9.30
2019-04-26T08:07:02.749Z,8.55
2019-04-26T08:09:35.392Z,8.45
2019-04-26T08:12:08.089Z,8.90
2019-04-26T08:15:01.991Z,7.92
2019-04-26T08:17:55.695Z,8.53
2019-04-26T08:20:48.236Z,8.80
2019-04-26T08:23:41.150Z,8.43
2019-04-26T08:26:05.091Z,9.05
2019-04-26T08:28:38.862Z,8.83
2019-04-26T08:31:15.529Z,9.03
2019-04-26T08:33:49.874Z,8.70
2019-04-26T08:36:23.226Z,8.20
2019-04-26T08:38:54.775Z,8.83
2019-04-26T08:41:25.513Z,7.78
2019-04-26T08:44:09.744Z,8.03
2019-04-26T08:47:00.204Z,8.58
2019-04-26T08:49:43.771Z,8.35
2019-04-26T08:52:16.354Z,7.60
2019-04-26T08:54:55.518Z,7.50
2019-04-26T08:57:29.459Z,7.45
2019-04-26T09:00:01.731Z,7.47
2019-04-26T09:03:11.520Z,7.62
2019-04-26T09:05:56.052Z,7.25
2019-04-26T09:08:28.716Z,7.53
2019-04-26T09:11:01.490Z,6.75
2019-04-26T09:13:36.611Z,7.03
2019-04-26T09:16:10.849Z,6.90
2019-04-26T09:18:43.469Z,6.60
2019-04-26T09:21:13.242Z,6.90
2019-04-26T09:24:09.358Z,6.70
2019-04-26T09:26:51.856Z,6.58
2019-04-26T09:29:43.261Z,7.28
2019-04-26T09:32:18.871Z,6.58
2019-04-26T09:34:49.184Z,6.50
2019-04-26T09:37:18.919Z,6.40
2019-04-26T09:39:48.582Z,6.42
2019-04-26T09:42:41.024Z,6.22
2019-04-26T09:45:28.817Z,6.55
2019-04-26T09:48:09.372Z,5.72
2019-04-26T09:50:42.557Z,7.62
2019-04-26T09:53:12.653Z,6.78
2019-04-26T09:55:42.350Z,6.10
2019-04-26T09:58:12.089Z,6.72
2019-04-26T10:00:43.997Z,6.05
2019-04-26T10:03:13.122Z,6.42
2019-04-26T10:05:42.858Z,5.90
2019-04-26T10:08:14.400Z,5.95
2019-04-26T10:10:43.862Z,5.10
2019-04-26T10:13:32.466Z,12.00
2019-04-26T10:16:33.587Z,5.00
2019-04-26T10:19:06.895Z,5.58
2019-04-26T10:21:36.579Z,4.42
2019-04-26T10:24:08.377Z,5.37
2019-04-26T10:26:37.632Z,6.53
2019-04-26T10:29:07.387Z,6.33
2019-04-26T10:31:37.062Z,4.30
2019-04-26T10:34:07.746Z,4.12
2019-04-26T10:36:38.179Z,5.47
2019-04-26T10:39:10.724Z,4.42
2019-04-26T10:41:40.444Z,4.12
2019-04-26T10:44:10.198Z,3.58
2019-04-26T10:46:39.900Z,4.15
2019-04-26T10:49:37.898Z,3.62
2019-04-26T10:52:11.898Z,3.47
2019-04-26T10:54:45.925Z,4.12
2019-04-26T10:57:18.572Z,4.72
2019-04-26T10:59:56.892Z,6.85
2019-04-26T11:02:26.587Z,4.10
2019-04-26T11:04:56.415Z,4.50
2019-04-26T11:07:26.515Z,5.05
2019-04-26T11:09:56.175Z,5.10
2019-04-26T11:12:25.939Z,4.62
2019-04-26T11:14:56.924Z,4.92
2019-04-26T11:17:28.305Z,4.83
2019-04-26T11:19:57.999Z,4.58
2019-04-26T11:22:29.207Z,5.05
2019-04-26T11:25:02.908Z,4.95
2019-04-26T11:27:32.570Z,5.05
2019-04-26T11:30:11.959Z,4.60
2019-04-26T11:32:36.789Z,4.72
2019-04-26T11:35:07.650Z,4.47
2019-04-26T11:37:37.376Z,4.78
2019-04-26T11:40:10.236Z,4.60
2019-04-26T11:42:41.867Z,4.28
2019-04-26T11:45:14.615Z,4.40
2019-04-26T11:47:55.424Z,4.10
2019-04-26T11:50:16.460Z,3.90
2019-04-26T11:52:47.249Z,3.30
2019-04-26T11:55:17.596Z,3.30
2019-04-26T11:57:48.828Z,3.30
2019-04-26T12:00:27.502Z,3.35
2019-04-26T12:02:57.823Z,3.62
2019-04-26T12:05:58.666Z,3.33
2019-04-26T12:08:56.191Z,3.70
2019-04-26T12:11:32.547Z,3.70
2019-04-26T12:13:59.518Z,3.75
2019-04-26T12:16:28.623Z,3.20
2019-04-26T12:18:58.303Z,3.55
2019-04-26T12:21:30.451Z,3.70
2019-04-26T12:23:59.910Z,3.40
2019-04-26T12:26:42.125Z,3.60
2019-04-26T12:29:00.925Z,3.50
2019-04-26T12:31:32.019Z,5.05
2019-04-26T12:34:01.791Z,3.65
2019-04-26T12:36:31.475Z,3.80
2019-04-26T12:39:02.266Z,3.77
2019-04-26T12:41:40.193Z,3.87
2019-04-26T12:44:03.947Z,3.75
2019-04-26T12:46:45.577Z,4.08
2019-04-26T12:49:15.268Z,4.15
2019-04-26T12:51:47.431Z,4.05
2019-04-26T12:54:16.342Z,3.95
2019-04-26T12:56:46.014Z,3.80
2019-04-26T12:59:16.029Z,3.80
2019-04-26T13:01:47.563Z,3.62
2019-04-26T13:04:17.646Z,3.67
2019-04-26T13:06:56.618Z,3.87
2019-04-26T13:09:27.959Z,3.50
2019-04-26T13:12:15.289Z,3.52
2019-04-26T13:14:57.438Z,3.90
2019-04-26T13:17:46.022Z,3.80
2019-04-26T13:20:15.726Z,3.12
2019-04-26T13:22:46.384Z,3.60
2019-04-26T13:25:26.236Z,3.98
2019-04-26T13:27:48.118Z,3.70
2019-04-26T13:30:18.010Z,3.95
2019-04-26T13:32:52.910Z,3.62
2019-04-26T13:35:20.513Z,4.10
2019-04-26T13:37:50.212Z,4.40
2019-04-26T13:40:20.389Z,3.87
2019-04-26T13:42:51.464Z,3.62
2019-04-26T13:45:46.527Z,4.10
2019-04-26T13:48:32.323Z,4.50
2019-04-26T13:51:05.824Z,4.67
2019-04-26T13:53:36.082Z,5.03
2019-04-26T13:56:05.835Z,4.37
2019-04-26T13:58:35.543Z,4.75
2019-04-26T14:01:06.062Z,4.20
2019-04-26T14:03:35.776Z,4.28
2019-04-26T14:06:05.547Z,4.40
2019-04-26T14:08:35.268Z,4.60
2019-04-26T14:11:05.257Z,4.00
2019-04-26T14:13:34.990Z,4.33
2019-04-26T14:16:05.798Z,5.15
2019-04-26T14:18:38.964Z,4.40
2019-04-26T14:21:06.810Z,4.83
2019-04-26T14:24:07.184Z,4.33
2019-04-26T14:26:39.961Z,4.90
2019-04-26T14:29:10.503Z,4.83
2019-04-26T14:31:40.187Z,4.83
2019-04-26T14:34:12.079Z,4.67
2019-04-26T14:36:43.638Z,4.12
2019-04-26T14:39:14.884Z,4.67
2019-04-26T14:41:44.060Z,4.65
2019-04-26T14:44:15.804Z,4.47
2019-04-26T14:46:48.826Z,4.33
2019-04-26T14:49:19.258Z,5.58
2019-04-26T14:51:51.260Z,4.95
2019-04-26T14:54:20.319Z,5.17
2019-04-26T14:56:52.303Z,4.30
2019-04-26T14:59:48.834Z,4.95
2019-04-26T15:02:43.295Z,4.60
2019-04-26T15:08:09.610Z,4.62
2019-04-26T15:10:45.791Z,5.03
2019-04-26T15:13:17.182Z,4.92
2019-04-26T15:15:38.893Z,5.35
2019-04-26T15:18:08.702Z,4.58
2019-04-26T15:20:38.391Z,4.17
2019-04-26T15:23:08.139Z,4.95
2019-04-26T15:25:41.409Z,4.55
2019-04-26T15:28:12.080Z,5.40
2019-04-26T15:30:46.386Z,5.00
2019-04-26T15:33:13.836Z,5.00
2019-04-26T15:35:44.378Z,5.47
2019-04-26T15:38:14.128Z,4.15
2019-04-26T15:41:11.694Z,5.03
2019-04-26T15:44:02.723Z,5.30
2019-04-26T15:46:53.737Z,5.58
2019-04-26T15:49:48.510Z,5.55
2019-04-26T15:52:18.297Z,5.25
2019-04-26T15:54:48.010Z,4.80
2019-04-26T15:57:17.692Z,4.60
2019-04-26T15:59:47.428Z,5.30
2019-04-26T16:02:18.423Z,5.00
2019-04-26T16:04:51.402Z,4.95
2019-04-26T16:07:27.280Z,5.20
2019-04-26T16:09:55.971Z,5.15
2019-04-26T16:12:24.571Z,5.37
2019-04-26T16:14:54.422Z,5.35
2019-04-26T16:17:24.145Z,5.70
2019-04-26T16:19:56.193Z,5.42
2019-04-26T16:22:25.907Z,6.28
2019-04-26T16:24:58.141Z,5.83
2019-04-26T16:27:32.379Z,5.08
2019-04-26T16:30:18.627Z,5.92
2019-04-26T16:32:58.850Z,4.80
2019-04-26T16:35:32.405Z,4.87
2019-04-26T16:38:22.484Z,5.30
2019-04-26T16:40:54.984Z,5.08
2019-04-26T16:43:36.682Z,4.85
2019-04-26T16:45:55.479Z,4.72
2019-04-26T16:48:25.805Z,4.80
2019-04-26T16:51:00.886Z,4.90
2019-04-26T16:53:43.566Z,5.53
2019-04-26T16:56:03.673Z,5.28
2019-04-26T16:58:38.264Z,5.28
2019-04-26T17:01:15.516Z,4.70
2019-04-26T17:03:38.198Z,5.17
2019-04-26T17:06:11.424Z,5.22
2019-04-26T17:08:43.333Z,5.70
2019-04-26T17:11:10.255Z,5.35
2019-04-26T17:13:49.231Z,4.80
2019-04-26T17:16:12.752Z,5.30
2019-04-26T17:18:42.842Z,5.55
2019-04-26T17:21:17.502Z,5.15
2019-04-26T17:24:19.167Z,4.97
2019-04-26T17:26:52.388Z,6.20
2019-04-26T17:29:22.593Z,5.75
2019-04-26T17:31:52.418Z,5.25
2019-04-26T17:34:28.471Z,5.58
2019-04-26T17:36:53.463Z,5.12
2019-04-26T17:39:23.211Z,5.62
2019-04-26T17:41:54.364Z,6.25
2019-04-26T17:44:26.663Z,6.92
2019-04-26T17:46:56.940Z,5.35
2019-04-26T17:49:28.770Z,6.25
2019-04-26T17:51:59.880Z,6.05
2019-04-26T17:54:44.376Z,6.42
2019-04-26T17:57:04.476Z,6.22
2019-04-26T17:59:35.868Z,6.37
2019-04-26T18:02:17.985Z,7.15
2019-04-26T18:04:37.399Z,6.40
2019-04-26T18:07:33.755Z,6.62
2019-04-26T18:09:43.867Z,6.30
2019-04-26T18:12:11.887Z,5.75
2019-04-26T18:14:41.851Z,6.28
2019-04-26T18:17:27.883Z,5.28
2019-04-26T18:20:23.540Z,5.95
2019-04-26T18:23:05.202Z,5.80
2019-04-26T18:25:34.357Z,6.20
2019-04-26T18:28:04.654Z,6.33
2019-04-26T18:30:34.731Z,7.20
2019-04-26T18:33:44.444Z,7.17
2019-04-26T18:36:14.154Z,7.12
2019-04-26T18:38:48.479Z,6.97
2019-04-26T18:41:15.199Z,6.35
2019-04-26T18:43:44.961Z,6.78
2019-04-26T18:46:20.477Z,6.47
2019-04-26T18:48:50.162Z,7.37
2019-04-26T18:51:19.867Z,6.95
2019-04-26T18:54:09.375Z,6.05
2019-04-26T18:56:41.241Z,7.78
2019-04-26T18:59:11.742Z,8.08
2019-04-26T19:01:42.411Z,8.43
2019-04-26T19:04:13.536Z,7.23
2019-04-26T19:06:43.567Z,7.13
2019-04-26T19:09:13.994Z,7.40
2019-04-26T19:11:48.446Z,7.80
2019-04-26T19:14:48.734Z,7.33
2019-04-26T19:17:30.191Z,7.83
2019-04-26T19:20:24.807Z,6.77
2019-04-26T19:23:02.967Z,6.97
2019-04-26T19:25:35.637Z,6.97
2019-04-26T19:28:08.166Z,7.30
2019-04-26T19:30:40.026Z,7.10
2019-04-26T19:33:11.504Z,7.40
2019-04-26T19:35:44.036Z,7.33
2019-04-26T19:38:14.557Z,7.70
2019-04-26T19:40:46.562Z,7.87
2019-04-26T19:43:27.612Z,8.10
2019-04-26T19:45:55.159Z,9.07
2019-04-26T19:48:35.440Z,9.43
2019-04-26T19:51:29.989Z,9.40
2019-04-26T19:54:06.101Z,9.10
2019-04-26T19:56:45.451Z,9.80
2019-04-26T19:59:15.154Z,9.37
2019-04-26T20:01:45.057Z,8.93
2019-04-26T20:04:14.812Z,11.23
2019-04-26T20:06:48.509Z,13.67
2019-04-26T20:09:17.659Z,11.97
2019-04-26T20:11:51.359Z,12.47
2019-04-26T20:14:19.115Z,13.67
2019-04-26T20:16:49.199Z,20.73
2019-04-26T20:19:31.640Z,15.03
2019-04-26T20:21:52.711Z,13.87
2019-04-26T20:24:22.321Z,14.47
2019-04-26T20:26:52.383Z,11.90
2019-04-26T20:29:23.192Z,13.27
2019-04-26T20:32:12.533Z,13.90
2019-04-26T20:34:49.361Z,14.63
2019-04-26T20:37:23.100Z,11.03
2019-04-26T20:39:55.795Z,8.00
2019-04-26T20:42:22.342Z,8.97
2019-04-26T20:44:53.818Z,7.90
2019-04-26T20:47:23.834Z,7.47
2019-04-26T20:50:00.850Z,7.53
2019-04-26T20:52:25.109Z,7.50
2019-04-26T20:54:55.247Z,8.33
2019-04-26T20:57:26.709Z,8.57
2019-04-26T21:00:01.567Z,9.07
2019-04-26T21:02:27.725Z,9.60
2019-04-26T21:04:57.431Z,11.30
2019-04-26T21:07:27.187Z,12.77
2019-04-26T21:09:56.953Z,12.20
2019-04-26T21:12:26.653Z,12.03
2019-04-26T21:14:56.385Z,11.70
2019-04-26T21:17:27.752Z,12.83
2019-04-26T21:19:58.674Z,13.30
2019-04-26T21:22:28.914Z,13.40
2019-04-26T21:25:04.777Z,13.47
2019-04-26T21:27:53.254Z,12.77
2019-04-26T21:30:38.697Z,12.00
2019-04-26T21:33:21.084Z,11.80
2019-04-26T21:36:02.034Z,11.63
2019-04-26T21:38:47.060Z,12.70
2019-04-26T21:41:19.588Z,13.07
2019-04-26T21:43:49.299Z,11.80
2019-04-26T21:46:20.124Z,12.07
2019-04-26T21:48:49.979Z,12.27
2019-04-26T21:51:19.759Z,13.67
2019-04-26T21:53:49.483Z,15.13
2019-04-26T21:56:19.459Z,21.17
2019-04-26T21:58:49.152Z,21.53
2019-04-26T22:01:24.913Z,22.70
2019-04-26T22:03:58.310Z,17.77
2019-04-26T22:06:28.639Z,18.27
2019-04-26T22:09:17.923Z,18.67
2019-04-26T22:11:49.424Z,19.13
2019-04-26T22:14:23.664Z,18.83
2019-04-26T22:17:02.044Z,19.03
2019-04-26T22:19:36.852Z,17.80
2019-04-26T22:22:20.490Z,18.77
2019-04-26T22:24:50.924Z,17.70
2019-04-26T22:27:21.786Z,14.80
2019-04-26T22:29:52.829Z,17.07
2019-04-26T22:32:23.449Z,16.93
2019-04-26T22:34:53.851Z,15.63
2019-04-26T22:37:30.045Z,16.50
2019-04-26T22:39:57.103Z,16.63
2019-04-26T22:42:27.686Z,18.00
2019-04-26T22:45:16.364Z,16.00
2019-04-26T22:47:59.797Z,16.93
2019-04-26T22:50:29.508Z,16.33
2019-04-26T22:52:59.255Z,15.70
2019-04-26T22:55:29.009Z,16.50
2019-04-26T22:57:58.792Z,16.03
2019-04-26T23:00:33.121Z,18.03
2019-04-26T23:03:07.045Z,19.87
2019-04-26T23:05:35.585Z,21.97
2019-04-26T23:08:06.179Z,19.43
2019-04-26T23:10:42.952Z,15.53
2019-04-26T23:13:26.347Z,18.73
2019-04-26T23:16:11.454Z,18.60
2019-04-26T23:19:00.157Z,18.40
2019-04-26T23:21:33.917Z,19.77
2019-04-26T23:24:04.117Z,19.47
2019-04-26T23:26:37.562Z,18.10
2019-04-26T23:29:08.687Z,16.83
2019-04-26T23:31:37.474Z,15.07
2019-04-26T23:34:07.550Z,15.97
2019-04-26T23:36:37.274Z,16.27
2019-04-26T23:39:12.064Z,16.43
2019-04-26T23:41:41.628Z,19.63
2019-04-26T23:44:10.987Z,16.13
2019-04-26T23:46:40.668Z,17.63
2019-04-26T23:49:10.407Z,16.73
2019-04-26T23:51:43.035Z,18.23
2019-04-26T23:54:11.435Z,19.23
2019-04-26T23:56:41.131Z,19.67
2019-04-26T23:59:15.023Z,18.00
